sensor_id;sensor_type;location;lat;lon;timestamp;P1;durP1;ratioP1;P2;durP2;ratioP2
68188;SDS011;66299;47.514;19.218;2023-05-23T00:01:23;26.70;;;15.20;;
68188;SDS011;66299;47.514;19.218;2023-05-23T00:03:51;24.45;;;14.77;;
68188;SDS011;66299;47.514;19.218;2023-05-23T00:06:22;23.63;;;14.13;;
68188;SDS011;66299;47.514;19.218;2023-05-23T00:08:50;23.27;;;13.48;;
68188;SDS011;66299;47.514;19.218;2023-05-23T00:11:19;23.55;;;14.50;;
68188;SDS011;66299;47.514;19.218;2023-05-23T00:13:54;22.40;;;14.23;;
68188;SDS011;66299;47.514;19.218;2023-05-23T00:16:26;24.30;;;15.52;;
68188;SDS011;66299;47.514;19.218;2023-05-23T00:18:55;22.70;;;14.23;;
68188;SDS011;66299;47.514;19.218;2023-05-23T00:21:25;24.33;;;14.43;;
68188;SDS011;66299;47.514;19.218;2023-05-23T00:23:56;23.52;;;14.48;;
68188;SDS011;66299;47.514;19.218;2023-05-23T00:26:25;28.05;;;15.18;;
68188;SDS011;66299;47.514;19.218;2023-05-23T00:28:59;23.85;;;14.52;;
68188;SDS011;66299;47.514;19.218;2023-05-23T00:31:27;31.30;;;15.90;;
68188;SDS011;66299;47.514;19.218;2023-05-23T00:33:56;23.63;;;14.38;;
68188;SDS011;66299;47.514;19.218;2023-05-23T00:36:24;22.13;;;14.63;;
68188;SDS011;66299;47.514;19.218;2023-05-23T00:38:53;24.73;;;13.75;;
68188;SDS011;66299;47.514;19.218;2023-05-23T00:41:22;24.65;;;13.68;;
68188;SDS011;66299;47.514;19.218;2023-05-23T00:43:53;21.17;;;12.90;;
68188;SDS011;66299;47.514;19.218;2023-05-23T00:46:24;19.67;;;12.60;;
68188;SDS011;66299;47.514;19.218;2023-05-23T00:48:53;23.15;;;12.88;;
68188;SDS011;66299;47.514;19.218;2023-05-23T00:51:22;20.63;;;12.68;;
68188;SDS011;66299;47.514;19.218;2023-05-23T00:53:51;23.05;;;12.15;;
68188;SDS011;66299;47.514;19.218;2023-05-23T00:56:22;26.88;;;12.80;;
68188;SDS011;66299;47.514;19.218;2023-05-23T00:58:52;23.85;;;12.60;;
68188;SDS011;66299;47.514;19.218;2023-05-23T01:01:21;23.30;;;12.73;;
68188;SDS011;66299;47.514;19.218;2023-05-23T01:03:51;21.05;;;12.98;;
68188;SDS011;66299;47.514;19.218;2023-05-23T01:06:20;23.60;;;13.73;;
68188;SDS011;66299;47.514;19.218;2023-05-23T01:08:49;22.65;;;14.05;;
68188;SDS011;66299;47.514;19.218;2023-05-23T01:11:19;24.13;;;14.40;;
68188;SDS011;66299;47.514;19.218;2023-05-23T01:13:57;26.13;;;14.45;;
68188;SDS011;66299;47.514;19.218;2023-05-23T01:16:31;22.73;;;14.80;;
68188;SDS011;66299;47.514;19.218;2023-05-23T01:19:13;22.58;;;14.10;;
68188;SDS011;66299;47.514;19.218;2023-05-23T01:21:52;21.00;;;12.65;;
68188;SDS011;66299;47.514;19.218;2023-05-23T01:24:29;21.02;;;11.73;;
68188;SDS011;66299;47.514;19.218;2023-05-23T01:27:06;21.92;;;11.98;;
68188;SDS011;66299;47.514;19.218;2023-05-23T01:29:44;25.45;;;11.88;;
68188;SDS011;66299;47.514;19.218;2023-05-23T01:32:16;23.17;;;12.05;;
68188;SDS011;66299;47.514;19.218;2023-05-23T01:34:48;17.48;;;11.50;;
68188;SDS011;66299;47.514;19.218;2023-05-23T01:37:21;19.65;;;11.35;;
68188;SDS011;66299;47.514;19.218;2023-05-23T01:39:50;21.27;;;10.82;;
68188;SDS011;66299;47.514;19.218;2023-05-23T01:42:18;18.70;;;12.20;;
68188;SDS011;66299;47.514;19.218;2023-05-23T01:44:49;21.05;;;11.95;;
68188;SDS011;66299;47.514;19.218;2023-05-23T01:47:19;18.58;;;11.70;;
68188;SDS011;66299;47.514;19.218;2023-05-23T01:49:49;26.67;;;12.43;;
68188;SDS011;66299;47.514;19.218;2023-05-23T01:52:18;20.38;;;12.05;;
68188;SDS011;66299;47.514;19.218;2023-05-23T01:54:48;19.63;;;11.68;;
68188;SDS011;66299;47.514;19.218;2023-05-23T01:57:18;18.15;;;11.65;;
68188;SDS011;66299;47.514;19.218;2023-05-23T01:59:49;20.60;;;11.77;;
68188;SDS011;66299;47.514;19.218;2023-05-23T02:02:18;19.88;;;11.68;;
68188;SDS011;66299;47.514;19.218;2023-05-23T02:04:48;18.30;;;11.15;;
68188;SDS011;66299;47.514;19.218;2023-05-23T02:07:16;21.15;;;11.43;;
68188;SDS011;66299;47.514;19.218;2023-05-23T02:12:17;23.30;;;11.60;;
68188;SDS011;66299;47.514;19.218;2023-05-23T02:14:46;24.30;;;12.32;;
68188;SDS011;66299;47.514;19.218;2023-05-23T02:17:15;22.25;;;11.73;;
68188;SDS011;66299;47.514;19.218;2023-05-23T02:19:44;19.98;;;11.60;;
68188;SDS011;66299;47.514;19.218;2023-05-23T02:22:15;20.02;;;11.23;;
68188;SDS011;66299;47.514;19.218;2023-05-23T02:24:43;19.02;;;11.93;;
68188;SDS011;66299;47.514;19.218;2023-05-23T02:27:12;20.05;;;11.20;;
68188;SDS011;66299;47.514;19.218;2023-05-23T02:29:41;21.60;;;11.95;;
68188;SDS011;66299;47.514;19.218;2023-05-23T02:32:10;18.40;;;11.70;;
68188;SDS011;66299;47.514;19.218;2023-05-23T02:34:42;20.05;;;12.32;;
68188;SDS011;66299;47.514;19.218;2023-05-23T02:37:12;21.63;;;11.55;;
68188;SDS011;66299;47.514;19.218;2023-05-23T02:39:41;17.90;;;10.80;;
68188;SDS011;66299;47.514;19.218;2023-05-23T02:42:10;19.65;;;10.95;;
68188;SDS011;66299;47.514;19.218;2023-05-23T02:44:39;21.13;;;11.13;;
68188;SDS011;66299;47.514;19.218;2023-05-23T02:47:07;20.05;;;11.43;;
68188;SDS011;66299;47.514;19.218;2023-05-23T02:49:36;17.67;;;11.23;;
68188;SDS011;66299;47.514;19.218;2023-05-23T02:52:06;18.00;;;11.02;;
68188;SDS011;66299;47.514;19.218;2023-05-23T02:54:34;17.70;;;11.35;;
68188;SDS011;66299;47.514;19.218;2023-05-23T02:57:03;20.92;;;11.27;;
68188;SDS011;66299;47.514;19.218;2023-05-23T02:59:33;24.15;;;12.10;;
68188;SDS011;66299;47.514;19.218;2023-05-23T03:02:02;24.05;;;11.35;;
68188;SDS011;66299;47.514;19.218;2023-05-23T03:04:30;20.38;;;11.88;;
68188;SDS011;66299;47.514;19.218;2023-05-23T03:07:00;21.90;;;12.45;;
68188;SDS011;66299;47.514;19.218;2023-05-23T03:09:38;22.88;;;12.35;;
68188;SDS011;66299;47.514;19.218;2023-05-23T03:12:07;21.50;;;11.77;;
68188;SDS011;66299;47.514;19.218;2023-05-23T03:14:35;19.73;;;12.02;;
68188;SDS011;66299;47.514;19.218;2023-05-23T03:17:06;20.70;;;11.55;;
68188;SDS011;66299;47.514;19.218;2023-05-23T03:19:35;19.77;;;11.30;;
68188;SDS011;66299;47.514;19.218;2023-05-23T03:22:04;21.52;;;12.02;;
68188;SDS011;66299;47.514;19.218;2023-05-23T03:24:34;22.40;;;12.40;;
68188;SDS011;66299;47.514;19.218;2023-05-23T03:27:04;25.70;;;12.57;;
68188;SDS011;66299;47.514;19.218;2023-05-23T03:29:33;21.95;;;12.88;;
68188;SDS011;66299;47.514;19.218;2023-05-23T03:32:03;21.60;;;13.93;;
68188;SDS011;66299;47.514;19.218;2023-05-23T03:34:32;21.35;;;12.77;;
68188;SDS011;66299;47.514;19.218;2023-05-23T03:37:02;21.58;;;13.93;;
68188;SDS011;66299;47.514;19.218;2023-05-23T03:39:30;25.30;;;13.85;;
68188;SDS011;66299;47.514;19.218;2023-05-23T03:41:59;24.40;;;13.40;;
68188;SDS011;66299;47.514;19.218;2023-05-23T03:44:30;24.73;;;13.25;;
68188;SDS011;66299;47.514;19.218;2023-05-23T03:46:58;23.92;;;10.65;;
68188;SDS011;66299;47.514;19.218;2023-05-23T03:49:28;21.15;;;11.25;;
68188;SDS011;66299;47.514;19.218;2023-05-23T03:51:56;19.75;;;10.70;;
68188;SDS011;66299;47.514;19.218;2023-05-23T03:54:24;21.02;;;11.27;;
68188;SDS011;66299;47.514;19.218;2023-05-23T03:56:53;20.67;;;11.27;;
68188;SDS011;66299;47.514;19.218;2023-05-23T03:59:23;21.35;;;11.00;;
68188;SDS011;66299;47.514;19.218;2023-05-23T04:01:53;22.58;;;11.40;;
68188;SDS011;66299;47.514;19.218;2023-05-23T04:04:25;18.88;;;12.00;;
68188;SDS011;66299;47.514;19.218;2023-05-23T04:06:55;28.33;;;12.38;;
68188;SDS011;66299;47.514;19.218;2023-05-23T04:09:23;26.20;;;12.02;;
68188;SDS011;66299;47.514;19.218;2023-05-23T04:11:57;25.83;;;12.85;;
68188;SDS011;66299;47.514;19.218;2023-05-23T04:14:27;22.80;;;12.27;;
68188;SDS011;66299;47.514;19.218;2023-05-23T04:16:59;22.27;;;12.18;;
68188;SDS011;66299;47.514;19.218;2023-05-23T04:19:31;23.00;;;11.88;;
68188;SDS011;66299;47.514;19.218;2023-05-23T04:22:02;24.15;;;12.82;;
68188;SDS011;66299;47.514;19.218;2023-05-23T04:24:32;22.15;;;13.10;;
68188;SDS011;66299;47.514;19.218;2023-05-23T04:27:02;28.90;;;13.70;;
68188;SDS011;66299;47.514;19.218;2023-05-23T04:29:32;25.65;;;13.73;;
68188;SDS011;66299;47.514;19.218;2023-05-23T04:32:04;21.75;;;12.93;;
68188;SDS011;66299;47.514;19.218;2023-05-23T04:34:37;23.65;;;13.13;;
68188;SDS011;66299;47.514;19.218;2023-05-23T04:37:07;27.58;;;12.50;;
68188;SDS011;66299;47.514;19.218;2023-05-23T04:39:36;23.52;;;12.90;;
68188;SDS011;66299;47.514;19.218;2023-05-23T04:42:04;22.10;;;12.68;;
68188;SDS011;66299;47.514;19.218;2023-05-23T04:44:34;21.02;;;12.02;;
68188;SDS011;66299;47.514;19.218;2023-05-23T04:47:05;24.70;;;12.32;;
68188;SDS011;66299;47.514;19.218;2023-05-23T04:49:34;24.38;;;13.23;;
68188;SDS011;66299;47.514;19.218;2023-05-23T04:52:03;24.58;;;13.13;;
68188;SDS011;66299;47.514;19.218;2023-05-23T04:54:33;26.67;;;13.75;;
68188;SDS011;66299;47.514;19.218;2023-05-23T04:57:03;23.23;;;12.90;;
68188;SDS011;66299;47.514;19.218;2023-05-23T04:59:34;22.90;;;13.00;;
68188;SDS011;66299;47.514;19.218;2023-05-23T05:02:05;25.17;;;12.75;;
68188;SDS011;66299;47.514;19.218;2023-05-23T05:04:35;23.35;;;13.50;;
68188;SDS011;66299;47.514;19.218;2023-05-23T05:07:04;22.10;;;13.23;;
68188;SDS011;66299;47.514;19.218;2023-05-23T05:09:34;23.77;;;13.32;;
68188;SDS011;66299;47.514;19.218;2023-05-23T05:12:03;23.05;;;13.00;;
68188;SDS011;66299;47.514;19.218;2023-05-23T05:14:31;21.88;;;12.52;;
68188;SDS011;66299;47.514;19.218;2023-05-23T05:17:02;25.10;;;12.65;;
68188;SDS011;66299;47.514;19.218;2023-05-23T05:19:34;21.10;;;13.27;;
68188;SDS011;66299;47.514;19.218;2023-05-23T05:22:03;24.45;;;12.68;;
68188;SDS011;66299;47.514;19.218;2023-05-23T05:24:34;24.90;;;12.73;;
68188;SDS011;66299;47.514;19.218;2023-05-23T05:27:03;25.38;;;11.40;;
68188;SDS011;66299;47.514;19.218;2023-05-23T05:29:32;24.38;;;9.52;;
68188;SDS011;66299;47.514;19.218;2023-05-23T05:32:04;18.98;;;9.38;;
68188;SDS011;66299;47.514;19.218;2023-05-23T05:34:38;23.50;;;8.65;;
68188;SDS011;66299;47.514;19.218;2023-05-23T05:37:09;22.55;;;8.40;;
68188;SDS011;66299;47.514;19.218;2023-05-23T05:39:39;14.70;;;7.35;;
68188;SDS011;66299;47.514;19.218;2023-05-23T05:42:08;18.55;;;7.97;;
68188;SDS011;66299;47.514;19.218;2023-05-23T05:44:36;19.15;;;7.40;;
68188;SDS011;66299;47.514;19.218;2023-05-23T05:47:06;18.38;;;8.02;;
68188;SDS011;66299;47.514;19.218;2023-05-23T05:49:34;18.70;;;7.53;;
68188;SDS011;66299;47.514;19.218;2023-05-23T05:52:05;15.02;;;7.45;;
68188;SDS011;66299;47.514;19.218;2023-05-23T05:54:37;14.57;;;6.78;;
68188;SDS011;66299;47.514;19.218;2023-05-23T05:57:06;21.42;;;7.30;;
68188;SDS011;66299;47.514;19.218;2023-05-23T05:59:38;19.00;;;7.60;;
68188;SDS011;66299;47.514;19.218;2023-05-23T06:02:08;20.57;;;7.30;;
68188;SDS011;66299;47.514;19.218;2023-05-23T06:04:41;17.70;;;7.53;;
68188;SDS011;66299;47.514;19.218;2023-05-23T06:07:14;15.55;;;7.47;;
68188;SDS011;66299;47.514;19.218;2023-05-23T06:09:46;23.08;;;7.30;;
68188;SDS011;66299;47.514;19.218;2023-05-23T06:14:49;17.65;;;7.15;;
68188;SDS011;66299;47.514;19.218;2023-05-23T06:17:19;20.45;;;7.68;;
68188;SDS011;66299;47.514;19.218;2023-05-23T06:19:49;15.05;;;6.88;;
68188;SDS011;66299;47.514;19.218;2023-05-23T06:22:25;14.65;;;7.13;;
68188;SDS011;66299;47.514;19.218;2023-05-23T06:24:54;13.85;;;6.85;;
68188;SDS011;66299;47.514;19.218;2023-05-23T06:27:25;14.30;;;6.75;;
68188;SDS011;66299;47.514;19.218;2023-05-23T06:29:57;19.75;;;6.50;;
68188;SDS011;66299;47.514;19.218;2023-05-23T06:32:27;16.05;;;6.78;;
68188;SDS011;66299;47.514;19.218;2023-05-23T06:35:00;16.73;;;6.45;;
68188;SDS011;66299;47.514;19.218;2023-05-23T06:37:31;15.15;;;6.32;;
68188;SDS011;66299;47.514;19.218;2023-05-23T06:40:04;17.40;;;6.55;;
68188;SDS011;66299;47.514;19.218;2023-05-23T06:42:40;14.93;;;7.00;;
68188;SDS011;66299;47.514;19.218;2023-05-23T06:45:09;14.15;;;6.50;;
68188;SDS011;66299;47.514;19.218;2023-05-23T06:47:42;17.67;;;7.10;;
68188;SDS011;66299;47.514;19.218;2023-05-23T06:50:12;14.32;;;7.05;;
68188;SDS011;66299;47.514;19.218;2023-05-23T06:52:43;13.85;;;6.95;;
68188;SDS011;66299;47.514;19.218;2023-05-23T06:55:14;13.60;;;6.15;;
68188;SDS011;66299;47.514;19.218;2023-05-23T06:57:46;18.58;;;7.00;;
68188;SDS011;66299;47.514;19.218;2023-05-23T07:00:22;15.57;;;6.47;;
68188;SDS011;66299;47.514;19.218;2023-05-23T07:02:51;15.45;;;6.32;;
68188;SDS011;66299;47.514;19.218;2023-05-23T07:05:21;21.77;;;5.80;;
68188;SDS011;66299;47.514;19.218;2023-05-23T07:07:52;15.80;;;6.20;;
68188;SDS011;66299;47.514;19.218;2023-05-23T07:10:26;13.82;;;6.00;;
68188;SDS011;66299;47.514;19.218;2023-05-23T07:13:00;17.95;;;6.15;;
68188;SDS011;66299;47.514;19.218;2023-05-23T07:15:34;17.58;;;5.53;;
68188;SDS011;66299;47.514;19.218;2023-05-23T07:18:02;16.10;;;5.95;;
68188;SDS011;66299;47.514;19.218;2023-05-23T07:20:34;13.15;;;5.15;;
68188;SDS011;66299;47.514;19.218;2023-05-23T07:23:04;13.60;;;5.60;;
68188;SDS011;66299;47.514;19.218;2023-05-23T07:25:37;15.82;;;5.57;;
68188;SDS011;66299;47.514;19.218;2023-05-23T07:28:28;15.73;;;5.55;;
68188;SDS011;66299;47.514;19.218;2023-05-23T07:30:59;19.83;;;5.55;;
68188;SDS011;66299;47.514;19.218;2023-05-23T07:33:29;13.80;;;5.50;;
68188;SDS011;66299;47.514;19.218;2023-05-23T07:36:02;16.52;;;5.57;;
68188;SDS011;66299;47.514;19.218;2023-05-23T07:38:35;13.30;;;5.50;;
68188;SDS011;66299;47.514;19.218;2023-05-23T07:41:07;15.98;;;5.82;;
68188;SDS011;66299;47.514;19.218;2023-05-23T07:43:38;12.82;;;5.60;;
68188;SDS011;66299;47.514;19.218;2023-05-23T07:46:11;21.50;;;5.97;;
68188;SDS011;66299;47.514;19.218;2023-05-23T07:48:43;14.07;;;5.60;;
68188;SDS011;66299;47.514;19.218;2023-05-23T07:51:16;12.60;;;5.90;;
68188;SDS011;66299;47.514;19.218;2023-05-23T07:53:48;17.27;;;6.15;;
68188;SDS011;66299;47.514;19.218;2023-05-23T07:56:20;15.30;;;5.63;;
68188;SDS011;66299;47.514;19.218;2023-05-23T07:58:51;17.60;;;5.43;;
68188;SDS011;66299;47.514;19.218;2023-05-23T08:01:24;14.88;;;4.95;;
68188;SDS011;66299;47.514;19.218;2023-05-23T08:03:55;15.93;;;5.60;;
68188;SDS011;66299;47.514;19.218;2023-05-23T08:06:26;14.85;;;5.40;;
68188;SDS011;66299;47.514;19.218;2023-05-23T08:08:58;14.20;;;4.80;;
68188;SDS011;66299;47.514;19.218;2023-05-23T08:11:32;13.60;;;5.22;;
68188;SDS011;66299;47.514;19.218;2023-05-23T08:14:01;15.68;;;5.10;;
68188;SDS011;66299;47.514;19.218;2023-05-23T08:16:33;10.93;;;4.95;;
68188;SDS011;66299;47.514;19.218;2023-05-23T08:19:04;17.70;;;5.63;;
68188;SDS011;66299;47.514;19.218;2023-05-23T08:21:37;22.83;;;5.72;;
68188;SDS011;66299;47.514;19.218;2023-05-23T08:24:08;14.52;;;5.07;;
68188;SDS011;66299;47.514;19.218;2023-05-23T08:26:40;20.88;;;5.30;;
68188;SDS011;66299;47.514;19.218;2023-05-23T08:29:09;19.98;;;4.97;;
68188;SDS011;66299;47.514;19.218;2023-05-23T08:31:43;22.73;;;4.95;;
68188;SDS011;66299;47.514;19.218;2023-05-23T08:34:17;14.90;;;5.13;;
68188;SDS011;66299;47.514;19.218;2023-05-23T08:37:02;12.15;;;4.82;;
68188;SDS011;66299;47.514;19.218;2023-05-23T08:39:32;12.30;;;4.75;;
68188;SDS011;66299;47.514;19.218;2023-05-23T08:42:03;12.75;;;5.00;;
68188;SDS011;66299;47.514;19.218;2023-05-23T08:44:36;14.73;;;4.88;;
68188;SDS011;66299;47.514;19.218;2023-05-23T08:47:09;16.95;;;5.18;;
68188;SDS011;66299;47.514;19.218;2023-05-23T08:49:43;10.80;;;5.38;;
68188;SDS011;66299;47.514;19.218;2023-05-23T08:52:13;18.17;;;6.15;;
68188;SDS011;66299;47.514;19.218;2023-05-23T08:54:55;13.43;;;6.30;;
68188;SDS011;66299;47.514;19.218;2023-05-23T08:57:24;16.73;;;6.30;;
68188;SDS011;66299;47.514;19.218;2023-05-23T08:59:55;16.17;;;6.50;;
68188;SDS011;66299;47.514;19.218;2023-05-23T09:02:26;16.58;;;6.30;;
68188;SDS011;66299;47.514;19.218;2023-05-23T09:05:00;18.85;;;5.53;;
68188;SDS011;66299;47.514;19.218;2023-05-23T09:07:29;13.90;;;5.80;;
68188;SDS011;66299;47.514;19.218;2023-05-23T09:09:59;16.00;;;5.43;;
68188;SDS011;66299;47.514;19.218;2023-05-23T09:12:30;12.15;;;5.20;;
68188;SDS011;66299;47.514;19.218;2023-05-23T09:15:05;18.80;;;5.82;;
68188;SDS011;66299;47.514;19.218;2023-05-23T09:17:36;13.55;;;5.20;;
68188;SDS011;66299;47.514;19.218;2023-05-23T09:20:11;15.40;;;5.55;;
68188;SDS011;66299;47.514;19.218;2023-05-23T09:22:46;13.20;;;5.10;;
68188;SDS011;66299;47.514;19.218;2023-05-23T09:25:18;13.15;;;4.78;;
68188;SDS011;66299;47.514;19.218;2023-05-23T09:27:50;16.90;;;5.30;;
68188;SDS011;66299;47.514;19.218;2023-05-23T09:30:25;14.73;;;5.07;;
68188;SDS011;66299;47.514;19.218;2023-05-23T09:32:56;14.25;;;5.32;;
68188;SDS011;66299;47.514;19.218;2023-05-23T09:35:32;11.63;;;5.05;;
68188;SDS011;66299;47.514;19.218;2023-05-23T09:38:01;14.43;;;5.40;;
68188;SDS011;66299;47.514;19.218;2023-05-23T09:40:33;13.00;;;5.35;;
68188;SDS011;66299;47.514;19.218;2023-05-23T09:43:01;15.20;;;5.03;;
68188;SDS011;66299;47.514;19.218;2023-05-23T09:45:38;14.27;;;5.80;;
68188;SDS011;66299;47.514;19.218;2023-05-23T09:48:06;11.80;;;5.43;;
68188;SDS011;66299;47.514;19.218;2023-05-23T09:50:46;13.07;;;5.82;;
68188;SDS011;66299;47.514;19.218;2023-05-23T09:53:19;12.10;;;5.25;;
68188;SDS011;66299;47.514;19.218;2023-05-23T09:55:53;12.77;;;5.18;;
68188;SDS011;66299;47.514;19.218;2023-05-23T09:58:28;13.25;;;5.07;;
68188;SDS011;66299;47.514;19.218;2023-05-23T10:00:59;15.63;;;5.68;;
68188;SDS011;66299;47.514;19.218;2023-05-23T10:03:33;13.95;;;5.70;;
68188;SDS011;66299;47.514;19.218;2023-05-23T10:06:09;16.10;;;5.28;;
68188;SDS011;66299;47.514;19.218;2023-05-23T10:08:43;12.88;;;5.38;;
68188;SDS011;66299;47.514;19.218;2023-05-23T10:11:32;11.15;;;5.22;;
68188;SDS011;66299;47.514;19.218;2023-05-23T10:14:34;12.10;;;4.93;;
68188;SDS011;66299;47.514;19.218;2023-05-23T10:17:10;13.25;;;4.78;;
68188;SDS011;66299;47.514;19.218;2023-05-23T10:19:42;10.07;;;4.65;;
68188;SDS011;66299;47.514;19.218;2023-05-23T10:22:15;11.43;;;4.57;;
68188;SDS011;66299;47.514;19.218;2023-05-23T10:24:44;9.48;;;4.50;;
68188;SDS011;66299;47.514;19.218;2023-05-23T10:27:16;12.23;;;4.53;;
68188;SDS011;66299;47.514;19.218;2023-05-23T10:29:50;12.30;;;4.50;;
68188;SDS011;66299;47.514;19.218;2023-05-23T10:32:21;11.32;;;4.20;;
68188;SDS011;66299;47.514;19.218;2023-05-23T10:34:54;11.10;;;4.20;;
68188;SDS011;66299;47.514;19.218;2023-05-23T10:37:28;12.65;;;4.07;;
68188;SDS011;66299;47.514;19.218;2023-05-23T10:40:04;12.77;;;4.20;;
68188;SDS011;66299;47.514;19.218;2023-05-23T10:42:43;14.95;;;4.40;;
68188;SDS011;66299;47.514;19.218;2023-05-23T10:45:21;9.23;;;4.10;;
68188;SDS011;66299;47.514;19.218;2023-05-23T10:47:50;12.13;;;4.50;;
68188;SDS011;66299;47.514;19.218;2023-05-23T10:50:29;9.95;;;4.15;;
68188;SDS011;66299;47.514;19.218;2023-05-23T10:53:01;10.80;;;4.40;;
68188;SDS011;66299;47.514;19.218;2023-05-23T10:55:31;11.85;;;4.00;;
68188;SDS011;66299;47.514;19.218;2023-05-23T10:58:13;12.82;;;4.03;;
68188;SDS011;66299;47.514;19.218;2023-05-23T11:00:54;11.45;;;4.10;;
68188;SDS011;66299;47.514;19.218;2023-05-23T11:03:36;11.00;;;3.95;;
68188;SDS011;66299;47.514;19.218;2023-05-23T11:06:31;13.68;;;4.43;;
68188;SDS011;66299;47.514;19.218;2023-05-23T11:09:07;10.95;;;4.57;;
68188;SDS011;66299;47.514;19.218;2023-05-23T11:11:53;10.55;;;4.78;;
68188;SDS011;66299;47.514;19.218;2023-05-23T11:14:32;13.43;;;5.00;;
68188;SDS011;66299;47.514;19.218;2023-05-23T11:17:32;11.98;;;5.30;;
68188;SDS011;66299;47.514;19.218;2023-05-23T11:20:04;13.40;;;4.97;;
68188;SDS011;66299;47.514;19.218;2023-05-23T11:22:36;11.70;;;4.80;;
68188;SDS011;66299;47.514;19.218;2023-05-23T11:25:07;14.05;;;4.57;;
68188;SDS011;66299;47.514;19.218;2023-05-23T11:27:37;12.13;;;4.33;;
68188;SDS011;66299;47.514;19.218;2023-05-23T11:32:49;11.27;;;4.78;;
68188;SDS011;66299;47.514;19.218;2023-05-23T11:35:21;12.18;;;4.28;;
68188;SDS011;66299;47.514;19.218;2023-05-23T11:37:54;13.68;;;4.78;;
68188;SDS011;66299;47.514;19.218;2023-05-23T11:40:27;13.88;;;4.82;;
68188;SDS011;66299;47.514;19.218;2023-05-23T11:42:59;11.63;;;4.18;;
68188;SDS011;66299;47.514;19.218;2023-05-23T11:48:07;10.57;;;4.43;;
68188;SDS011;66299;47.514;19.218;2023-05-23T11:50:43;10.02;;;4.60;;
68188;SDS011;66299;47.514;19.218;2023-05-23T11:53:19;13.10;;;4.80;;
68188;SDS011;66299;47.514;19.218;2023-05-23T11:55:52;13.35;;;4.72;;
68188;SDS011;66299;47.514;19.218;2023-05-23T11:58:27;13.30;;;5.00;;
68188;SDS011;66299;47.514;19.218;2023-05-23T12:01:04;11.93;;;4.63;;
68188;SDS011;66299;47.514;19.218;2023-05-23T12:03:34;15.05;;;4.60;;
68188;SDS011;66299;47.514;19.218;2023-05-23T12:06:15;11.80;;;4.60;;
68188;SDS011;66299;47.514;19.218;2023-05-23T12:08:47;15.48;;;4.65;;
68188;SDS011;66299;47.514;19.218;2023-05-23T12:11:16;14.38;;;5.05;;
68188;SDS011;66299;47.514;19.218;2023-05-23T12:13:46;12.07;;;4.90;;
68188;SDS011;66299;47.514;19.218;2023-05-23T12:18:49;13.10;;;4.40;;
68188;SDS011;66299;47.514;19.218;2023-05-23T12:21:23;13.80;;;4.63;;
68188;SDS011;66299;47.514;19.218;2023-05-23T12:23:59;11.38;;;4.50;;
68188;SDS011;66299;47.514;19.218;2023-05-23T12:26:47;10.95;;;4.65;;
68188;SDS011;66299;47.514;19.218;2023-05-23T12:29:20;11.98;;;4.70;;
68188;SDS011;66299;47.514;19.218;2023-05-23T12:31:58;13.95;;;4.63;;
68188;SDS011;66299;47.514;19.218;2023-05-23T12:34:30;13.05;;;4.60;;
68188;SDS011;66299;47.514;19.218;2023-05-23T12:37:11;11.02;;;4.70;;
68188;SDS011;66299;47.514;19.218;2023-05-23T12:39:48;13.25;;;4.80;;
68188;SDS011;66299;47.514;19.218;2023-05-23T12:42:20;12.02;;;4.53;;
68188;SDS011;66299;47.514;19.218;2023-05-23T12:44:52;11.33;;;4.87;;
68188;SDS011;66299;47.514;19.218;2023-05-23T12:47:25;13.45;;;4.70;;
68188;SDS011;66299;47.514;19.218;2023-05-23T12:50:00;12.20;;;4.70;;
68188;SDS011;66299;47.514;19.218;2023-05-23T12:52:34;11.80;;;4.57;;
68188;SDS011;66299;47.514;19.218;2023-05-23T12:55:05;13.48;;;4.80;;
68188;SDS011;66299;47.514;19.218;2023-05-23T12:57:34;13.43;;;4.70;;
68188;SDS011;66299;47.514;19.218;2023-05-23T13:00:06;14.95;;;5.07;;
68188;SDS011;66299;47.514;19.218;2023-05-23T13:02:39;11.80;;;5.28;;
68188;SDS011;66299;47.514;19.218;2023-05-23T13:05:10;13.63;;;5.35;;
68188;SDS011;66299;47.514;19.218;2023-05-23T13:07:42;12.57;;;4.97;;
68188;SDS011;66299;47.514;19.218;2023-05-23T13:10:10;15.35;;;5.10;;
68188;SDS011;66299;47.514;19.218;2023-05-23T13:12:42;10.95;;;5.28;;
68188;SDS011;66299;47.514;19.218;2023-05-23T13:15:12;17.17;;;5.40;;
68188;SDS011;66299;47.514;19.218;2023-05-23T13:17:47;16.13;;;5.20;;
68188;SDS011;66299;47.514;19.218;2023-05-23T13:20:17;14.20;;;4.90;;
68188;SDS011;66299;47.514;19.218;2023-05-23T13:22:46;11.82;;;4.78;;
68188;SDS011;66299;47.514;19.218;2023-05-23T13:25:16;12.18;;;4.90;;
68188;SDS011;66299;47.514;19.218;2023-05-23T13:27:48;13.10;;;5.07;;
68188;SDS011;66299;47.514;19.218;2023-05-23T13:30:21;10.85;;;4.93;;
68188;SDS011;66299;47.514;19.218;2023-05-23T13:32:56;12.60;;;4.93;;
68188;SDS011;66299;47.514;19.218;2023-05-23T13:35:27;9.60;;;4.13;;
68188;SDS011;66299;47.514;19.218;2023-05-23T13:38:00;10.60;;;4.28;;
68188;SDS011;66299;47.514;19.218;2023-05-23T13:40:33;13.88;;;4.95;;
68188;SDS011;66299;47.514;19.218;2023-05-23T13:43:04;13.35;;;4.72;;
68188;SDS011;66299;47.514;19.218;2023-05-23T13:45:34;13.73;;;4.78;;
68188;SDS011;66299;47.514;19.218;2023-05-23T13:50:38;15.32;;;4.93;;
68188;SDS011;66299;47.514;19.218;2023-05-23T13:53:11;12.38;;;4.55;;
68188;SDS011;66299;47.514;19.218;2023-05-23T13:55:44;11.57;;;4.75;;
68188;SDS011;66299;47.514;19.218;2023-05-23T13:58:17;10.70;;;4.78;;
68188;SDS011;66299;47.514;19.218;2023-05-23T14:00:47;10.35;;;4.75;;
68188;SDS011;66299;47.514;19.218;2023-05-23T14:03:17;11.60;;;4.90;;
68188;SDS011;66299;47.514;19.218;2023-05-23T14:05:50;11.93;;;4.72;;
68188;SDS011;66299;47.514;19.218;2023-05-23T14:08:27;10.68;;;4.82;;
68188;SDS011;66299;47.514;19.218;2023-05-23T14:10:55;13.70;;;4.78;;
68188;SDS011;66299;47.514;19.218;2023-05-23T14:13:25;11.60;;;4.85;;
68188;SDS011;66299;47.514;19.218;2023-05-23T14:15:54;11.25;;;4.80;;
68188;SDS011;66299;47.514;19.218;2023-05-23T14:18:26;11.32;;;4.30;;
68188;SDS011;66299;47.514;19.218;2023-05-23T14:20:57;12.25;;;4.75;;
68188;SDS011;66299;47.514;19.218;2023-05-23T14:23:28;13.50;;;4.57;;
68188;SDS011;66299;47.514;19.218;2023-05-23T14:25:57;19.70;;;4.60;;
68188;SDS011;66299;47.514;19.218;2023-05-23T14:28:27;12.57;;;4.82;;
68188;SDS011;66299;47.514;19.218;2023-05-23T14:30:57;17.80;;;4.75;;
68188;SDS011;66299;47.514;19.218;2023-05-23T14:35:58;13.30;;;4.53;;
68188;SDS011;66299;47.514;19.218;2023-05-23T14:38:28;11.25;;;4.13;;
68188;SDS011;66299;47.514;19.218;2023-05-23T14:40:58;13.00;;;4.40;;
68188;SDS011;66299;47.514;19.218;2023-05-23T14:43:27;20.15;;;4.22;;
68188;SDS011;66299;47.514;19.218;2023-05-23T14:45:55;9.57;;;4.00;;
68188;SDS011;66299;47.514;19.218;2023-05-23T14:48:24;10.80;;;4.00;;
68188;SDS011;66299;47.514;19.218;2023-05-23T14:50:54;12.27;;;4.38;;
68188;SDS011;66299;47.514;19.218;2023-05-23T14:53:27;12.15;;;4.93;;
68188;SDS011;66299;47.514;19.218;2023-05-23T14:55:55;13.50;;;5.30;;
68188;SDS011;66299;47.514;19.218;2023-05-23T14:58:24;11.52;;;5.03;;
68188;SDS011;66299;47.514;19.218;2023-05-23T15:00:56;13.23;;;5.07;;